This is the latest recevied weather packets stored in our database for station/object KB1YYC. If no packets are shown the sender has not sent any weather packets the latest 1 day(s).
| Time | Temp. | Humidity | Pressure | Rain* | Wind** | Luminosity | Snow |
|---|---|---|---|---|---|---|---|
| 1836274599 | 8.89° C | 81% | 1021 hPa | 0 mm | 0 m/s | 0 W/m² | - |
| 1836274453 | 8.33° C | 82% | 1021 hPa | 0 mm | 0 m/s | 0 W/m² | - |
| 1836274298 | 8.89° C | 80% | 1021 hPa | 0 mm | 0 m/s | 0 W/m² | - |
| 1836274151 | 8.33° C | 82% | 1020.9 hPa | 0 mm | 0 m/s | 0 W/m² | - |
| 1836273996 | 8.89° C | 81% | 1020.8 hPa | 0 mm | 0 m/s | 0 W/m² | - |
| 1778047584 | 11.67° C | 88% | 1008.3 hPa | 0 mm | 0 m/s | 0 W/m² | - |
| 1778047280 | 12.22° C | 88% | 1008.2 hPa | 0 mm | 0 m/s | 0 W/m² | - |
| 1778046978 | 12.22° C | 87% | 1008.3 hPa | 0 mm | 0 m/s | 0 W/m² | - |
| 1778046674 | 12.22° C | 87% | 1008.2 hPa | 0 mm | 0 m/s | 0 W/m² | - |
| 1778046371 | 12.78° C | 86% | 1008.4 hPa | 0 mm | 0 m/s | 0 W/m² | - |
| 1778046067 | 12.22° C | 87% | 1008.7 hPa | 0 mm | 0 m/s | 0 W/m² | - |
| 1778045765 | 12.22° C | 87% | 1008.5 hPa | 0 mm | 0 m/s | 0 W/m² | - |
| 1778045463 | 12.78° C | 87% | 1008.5 hPa | 0 mm | 0 m/s | 0 W/m² | - |
| 1778045161 | 12.78° C | 87% | 1008.4 hPa | 0 mm | 0 m/s | 0 W/m² | - |
| 1778044859 | 12.78° C | 87% | 1008.4 hPa | 0 mm | 0 m/s | 0 W/m² | - |
| 1778044555 | 12.78° C | 86% | 1008.5 hPa | 0 mm | 0 m/s | 0 W/m² | - |
| 1778044252 | 12.78° C | 86% | 1008.5 hPa | 0 mm | 0 m/s | 0 W/m² | - |
| 1778043950 | 12.78° C | 85% | 1008.6 hPa | 0 mm | 0 m/s | 0 W/m² | - |
| 1778043647 | 12.78° C | 86% | 1008.5 hPa | 0 mm | 0 m/s | 0 W/m² | - |
| 1778043344 | 13.33° C | 84% | 1008.6 hPa | 0 mm | 0 m/s | 0 W/m² | - |
| 1778043040 | 13.33° C | 84% | 1008.7 hPa | 0 mm | 0 m/s | 0 W/m² | - |
| 1778042738 | 13.33° C | 82% | 1008.4 hPa | 0 mm | 0 m/s | 0 W/m² | - |
| 1778042435 | 13.89° C | 82% | 1008.6 hPa | 0 mm | 0 m/s | 0 W/m² | - |
| 1778042132 | 13.89° C | 81% | 1008.5 hPa | 0 mm | 0 m/s | 0 W/m² | - |
| 1778041830 | 13.89° C | 81% | 1008.5 hPa | 0 mm | 0.45 m/s, 250° | 0 W/m² | - |
* Rain latest hour (hover to see other rain measurements)
** Current wind speed in m/s (hover to see current wind gust speed)